Alfred, North Dakota
Current Conditions -  °F | °C
As of 2:56 AM on Wednesday 26 Nov 2014 (Local Time) from KJMS Reporting Station
Haze Haze  
Wind Chill: -24°   Ceiling: 8500
Heat Index: -13°   Visibility: 5mi
Dew Point: -16°   Wind: 21mph
Humidity: 77%   Direction: 10°N
Pressure: 30.17"   Gusts: NA
Location:  46.4882°N, 98.8135°W
Report Text: KJMS 260856Z AUTO 01018KT 5SM HZ SCT007 OVC085 M13/M16 A3017 RMK AO2 SNE11B34E36 SLP244 P0000 60000 T11281161 51024
Loading
Personal Weather Stations






























Interactive Weather Map New forecast layout! Learn more

10-Day Weather Forecast

Advertisements
Track Severe Weather on mobile